x

La Perouse Bank (46206) Wave Buoy

11:00 - Sat 6th Feb 2016 All times are PST. -8 hours from GMT.

  • Sig Wave height 13.1ft
  • Peak Period 13s
  • Wind
    11mph, 13mph gusts
  • Sea Temp 49°f
  • Luft Temp 47°f
  • Sea Pressure 1030.3mb
  • La Perouse Bank
  • La Perouse Bank

More Historic Weather Station data

Upgrade to MSW Pro to gain access to the past 30 days of data for over 8000 Wavebouys and Weather Stations around the globe.

Join Pro

Comparision Forecast

View Surf forecast
   
Sa 02/06 11:00 13ft 13s 11 13 mph 1030.3mb 49f 47f
10:00 12ft 12s 7 11 mph 1029.8mb 49f 46f
9:00 12ft 14s 4 9 mph 1029.5mb 49f 46f
8:00 13ft 13s 4 9 mph 1028.9mb 49f 46f
7:00 14ft 12s 16 22 mph 1028.4mb 50f 46f
6:00 14ft 12s 13 20 mph 1027.7mb 51f 47f
5:00 14.5ft 13s 16 25 mph 1027.2mb 51f 48f
4:00 14.5ft 13s 13 16 mph 1026.1mb 51f 47f
3:00 14.5ft 11s 11 16 mph 1025.1mb 51f 47f
2:00 15ft 14s 16 22 mph 1024mb 51f 48f
1:00 14.5ft 12s 18 25 mph 1023mb 51f 48f
12:00 15.5ft 13s 18 22 mph 1022.3mb 51f 48f
Fr 02/05 11:00 15.5ft 12s 20 27 mph 1020.7mb 51f 49f
10:00 15ft 12s 20 27 mph 1019.9mb 50f 49f
9:00 16.5ft 14s 22 27 mph 1018.1mb 50f 49f
8:00 17.5ft 14s 25 31 mph 1016.5mb 50f 49f
7:00 16.5ft 15s 27 34 mph 1014.9mb 50f 49f
6:00 16ft 11s 20 27 mph 1012.9mb 50f 49f
5:00 18.5ft 12s 27 36 mph 1010.4mb 50f 47f
4:00  -   -  11
mph
1008.4mb - 49f
3:00 23ft 14s 13 20 mph 1008.3mb 51f 50f
2:00 24.5ft 14s 31 40 mph 1006.2mb 51f 52f
1:00 24.5ft 13s 36 47 mph 1006mb 51f 52f
12:00 24.5ft 15s 36 47 mph 1007.3mb 51f 51f
11:00 22ft 14s 36 45 mph 1008.8mb 51f 52f
9:00 23.5ft 10s 34 45 mph 1010.7mb 51f 51f
8:00 22.5ft 14s 36 43 mph 1011.5mb 51f 51f
7:00 23ft 14s 36 45 mph 1012.6mb 51f 50f
6:00 21.5ft 14s 36 43 mph 1013.3mb 51f 50f
5:00 20.5ft 8s 36 47 mph 1014.8mb 51f 50f
4:00  -   -  36
mph
- - -
2:00 16ft 15s 31 40 mph 1018.9mb 51f 51f
1:00 15ft 15s 29 34 mph 1020.2mb 50f 52f
12:00 14ft 16s 27 34 mph 1021.4mb 50f 52f
Do 02/04 11:00 13ft 16s 25 31 mph 1021.4mb 50f 52f
10:00 14.5ft 14s 27 36 mph 1021.4mb 50f 52f
9:00 15ft 14s 27 34 mph 1021.5mb 50f 51f
8:00 15ft 12s 25 31 mph 1021.9mb 50f 52f
7:00 15ft 14s 22 31 mph 1022.3mb 50f 51f
6:00 15.5ft 15s 22 29 mph 1022.7mb 50f 51f
5:00 16.5ft 14s 25 34 mph 1023mb 50f 49f
4:00 15.5ft 14s 18 25 mph 1023.5mb 50f 51f
3:00 16ft 15s 20 25 mph 1023.3mb 50f 50f
2:00 15ft 15s 25 29 mph 1022.9mb 50f 50f
1:00 17.5ft 17s 22 29 mph 1023.9mb 50f 50f
12:00 16ft 16s 22 29 mph 1024.2mb 50f 48f
11:00 16ft 16s 22 29 mph 1023.8mb 50f 47f
10:00 15ft 16s 18 22 mph 1023.5mb 50f 48f
9:00 15.5ft 17s 13 18 mph 1023.4mb 50f 47f
8:00 15ft 18s 11 13 mph 1023.2mb 50f 47f
7:00 14.5ft 18s 13 18 mph 1022.2mb 51f 48f
6:00 15ft 18s 11 13 mph 1021.7mb 51f 49f
5:00 14ft 14s 9 13 mph 1021.2mb 51f 49f
4:00 15ft 15s 9 13 mph 1020.7mb 51f 49f
3:00 15.5ft 18s 13 18 mph 1019.8mb 51f 49f
2:00 15.5ft 17s 16 20 mph 1018.6mb 51f 48f
1:00 16ft 15s 16 22 mph 1017.3mb 51f 48f
12:00 15.5ft 17s 16 22 mph 1016.6mb 50f 48f
Mi 02/03 11:00 16ft 17s 16 22 mph 1015.4mb 50f 48f
10:00 15ft 18s 16 22 mph 1014.5mb 50f 48f
9:00 15ft 18s 11 13 mph 1013.6mb 50f 49f
8:00 12.5ft 18s 7 11 mph 1013.3mb 50f 47f
7:00 13ft 18s 16 22 mph 1012.9mb 50f 46f
6:00 13ft 18s 20 25 mph 1011.8mb 50f 48f
5:00 13.5ft 10s 16 25 mph 1010.7mb 50f 48f
4:00 15ft 10s 18 22 mph 1009.6mb 50f 46f
3:00 16.5ft 9s 25 31 mph 1008.2mb 50f 47f
2:00 16ft 9s 31 40 mph 1008.1mb 50f 48f
12:00  -   -  36
mph
- - -
11:00  -   -  36
mph
- - -
9:00 12.5ft 7s 36 45 mph 1011.6mb 50f 47f
8:00 12ft 8s 34 40 mph 1011.8mb 50f 47f
7:00 12ft 7s 31 40 mph 1013.2mb 50f 47f
6:00 11ft 7s 31 40 mph 1014.1mb 50f 47f
5:00 11ft 8s 29 36 mph 1014.9mb 50f 48f
4:00 10.5ft 7s 27 38 mph 1016mb 50f 47f
3:00 10.5ft 7s 27 34 mph 1016.6mb 50f 48f
2:00 11ft 11s 27 34 mph 1017.4mb 50f 46f
1:00 11ft 12s 27 36 mph 1017.3mb 50f 46f
12:00 11ft 10s 31 36 mph 1018mb 50f 45f
Di 02/02 11:00 10ft 10s 29 36 mph 1018.5mb 50f 46f
10:00 10.5ft 12s 29 36 mph 1018.2mb 50f 46f
9:00 10ft 12s 29 36 mph 1018.5mb 50f 46f